createdAt,value
2023-01-30T00:00:37.353Z,74.02
2023-01-30T00:03:17.138Z,73.75
2023-01-30T00:12:08.847Z,73.98
2023-01-30T00:19:28.158Z,73.86
2023-01-30T00:21:56.768Z,74.19
2023-01-30T00:31:02.619Z,73.88
2023-01-30T00:33:58.005Z,74.21
2023-01-30T00:39:49.473Z,73.86
2023-01-30T00:44:46.971Z,73.99
2023-01-30T00:51:08.999Z,73.75
2023-01-30T00:54:01.499Z,74.29
2023-01-30T00:57:17.128Z,73.84
2023-01-30T01:03:44.159Z,73.91
2023-01-30T01:07:59.259Z,74.38
2023-01-30T01:10:59.657Z,74.46
2023-01-30T01:14:23.918Z,74.39
2023-01-30T01:24:36.468Z,74.37
2023-01-30T01:27:18.426Z,74.50
2023-01-30T01:30:03.466Z,74.68
2023-01-30T01:45:26.179Z,73.81
2023-01-30T01:48:34.167Z,73.87
2023-01-30T01:51:30.410Z,74.11
2023-01-30T01:54:09.500Z,74.14
2023-01-30T01:57:02.983Z,73.93
2023-01-30T02:02:59.134Z,73.60
2023-01-30T02:05:34.108Z,73.08
2023-01-30T02:08:11.162Z,72.96
2023-01-30T02:10:51.316Z,73.37
2023-01-30T02:13:22.054Z,73.33
2023-01-30T02:15:52.983Z,73.50
2023-01-30T02:18:26.041Z,73.79
2023-01-30T02:21:30.252Z,73.81
2023-01-30T02:24:28.306Z,73.71
2023-01-30T02:27:29.327Z,73.46
2023-01-30T02:30:25.628Z,73.75
2023-01-30T02:33:15.014Z,73.86
2023-01-30T02:35:56.077Z,74.35
2023-01-30T02:38:42.697Z,73.96
2023-01-30T02:41:27.607Z,74.38
2023-01-30T02:44:07.765Z,74.53
2023-01-30T02:46:47.902Z,74.33
2023-01-30T02:49:26.789Z,74.61
2023-01-30T02:52:00.255Z,74.25
2023-01-30T02:54:30.442Z,74.15
2023-01-30T03:04:07.172Z,74.25
2023-01-30T03:11:30.246Z,73.56
2023-01-30T03:32:56.791Z,73.54
2023-01-30T03:35:36.041Z,73.29
2023-01-30T03:38:10.474Z,72.74
2023-01-30T03:41:31.256Z,72.97
2023-01-30T03:44:07.416Z,72.41
2023-01-30T03:50:44.507Z,72.63
2023-01-30T03:58:36.828Z,71.74
2023-01-30T04:01:20.131Z,71.24
2023-01-30T04:21:37.126Z,70.68
2023-01-30T04:29:01.694Z,70.27
2023-01-30T04:32:24.437Z,70.18
2023-01-30T04:35:29.218Z,69.96
2023-01-30T04:38:58.532Z,69.88
2023-01-30T04:45:10.818Z,69.76
2023-01-30T04:47:40.695Z,70.01
2023-01-30T04:50:12.419Z,70.00
2023-01-30T04:52:42.407Z,70.13
2023-01-30T04:55:13.964Z,70.18
2023-01-30T04:57:46.919Z,70.06
2023-01-30T05:00:17.492Z,70.35
2023-01-30T05:02:55.970Z,69.95
2023-01-30T05:05:27.033Z,69.55
2023-01-30T05:07:57.331Z,69.38
2023-01-30T05:10:27.457Z,68.89
2023-01-30T05:12:59.894Z,68.69
2023-01-30T05:15:29.693Z,68.89
2023-01-30T05:17:59.769Z,68.70
2023-01-30T05:20:32.996Z,68.79
2023-01-30T05:23:02.816Z,68.69
2023-01-30T05:25:32.839Z,69.00
2023-01-30T05:28:05.344Z,69.41
2023-01-30T05:30:35.240Z,70.00
2023-01-30T05:33:05.106Z,69.68
2023-01-30T05:35:34.975Z,69.65
2023-01-30T05:38:04.979Z,69.87
2023-01-30T05:40:34.917Z,69.87
2023-01-30T05:43:07.357Z,70.02
2023-01-30T05:45:37.327Z,69.77
2023-01-30T05:48:07.785Z,69.80
2023-01-30T05:50:37.927Z,70.20
2023-01-30T05:53:08.165Z,70.16
2023-01-30T05:55:38.168Z,70.42
2023-01-30T05:58:10.675Z,70.38
2023-01-30T06:00:40.899Z,70.02
2023-01-30T06:03:10.894Z,70.06
2023-01-30T06:05:41.491Z,70.29
2023-01-30T06:08:11.492Z,70.72
2023-01-30T06:10:41.464Z,70.95
2023-01-30T06:13:13.899Z,71.73
2023-01-30T06:15:43.784Z,72.49
2023-01-30T06:18:13.692Z,72.76
2023-01-30T06:20:43.568Z,72.22
2023-01-30T06:23:13.414Z,72.32
2023-01-30T06:25:47.709Z,72.25
2023-01-30T06:28:22.366Z,72.11
2023-01-30T06:30:52.889Z,72.36
2023-01-30T06:33:23.380Z,72.13
2023-01-30T06:35:56.910Z,72.22
2023-01-30T06:38:26.744Z,72.09
2023-01-30T06:40:56.667Z,71.84
2023-01-30T06:43:29.104Z,72.20
2023-01-30T06:46:01.521Z,72.39
2023-01-30T06:48:31.530Z,72.40
2023-01-30T06:51:01.524Z,72.83
2023-01-30T06:53:32.897Z,72.54
2023-01-30T06:56:04.656Z,72.26
2023-01-30T06:58:37.155Z,72.43
2023-01-30T07:01:07.141Z,72.12
2023-01-30T07:03:37.187Z,71.46
2023-01-30T07:06:07.287Z,71.22
2023-01-30T07:08:37.624Z,71.01
2023-01-30T07:11:09.146Z,71.10
2023-01-30T07:13:42.440Z,70.78
2023-01-30T07:16:16.854Z,70.76
2023-01-30T07:18:48.164Z,70.41
2023-01-30T07:21:18.759Z,70.67
2023-01-30T07:23:51.227Z,70.60
2023-01-30T07:26:21.364Z,70.87
2023-01-30T07:28:53.820Z,72.25
2023-01-30T07:31:23.741Z,72.46
2023-01-30T07:33:53.581Z,72.35
2023-01-30T07:36:26.006Z,72.34
2023-01-30T07:38:58.729Z,72.52
2023-01-30T07:41:34.156Z,72.46
2023-01-30T07:44:09.390Z,72.46
2023-01-30T07:46:39.259Z,72.56
2023-01-30T07:49:11.815Z,73.25
2023-01-30T07:51:41.728Z,72.82
2023-01-30T07:54:11.654Z,72.46
2023-01-30T07:56:41.603Z,73.04
2023-01-30T07:59:17.878Z,72.92
2023-01-30T08:01:47.740Z,72.73
2023-01-30T08:04:17.780Z,72.90
2023-01-30T08:06:47.987Z,72.87
2023-01-30T08:09:17.925Z,72.62
2023-01-30T08:11:47.869Z,73.08
2023-01-30T08:14:26.524Z,72.92
2023-01-30T08:16:56.598Z,73.19
2023-01-30T08:19:26.486Z,73.46
2023-01-30T08:21:56.386Z,72.99
2023-01-30T08:24:26.277Z,72.63
2023-01-30T08:26:56.173Z,72.49
2023-01-30T08:29:28.863Z,72.89
2023-01-30T08:32:00.145Z,72.55
2023-01-30T08:34:30.446Z,72.53
2023-01-30T08:37:00.515Z,74.22
2023-01-30T08:39:30.358Z,73.48
2023-01-30T08:42:00.193Z,72.11
2023-01-30T08:44:32.604Z,72.14
2023-01-30T08:47:02.413Z,72.05
2023-01-30T08:49:32.226Z,72.58
2023-01-30T08:52:02.146Z,72.58
2023-01-30T08:54:33.354Z,72.21
2023-01-30T08:57:03.310Z,73.10
2023-01-30T08:59:35.852Z,72.78
2023-01-30T09:02:06.085Z,73.43
2023-01-30T09:04:36.252Z,72.96
2023-01-30T09:07:06.256Z,73.22
2023-01-30T09:09:39.095Z,72.76
2023-01-30T09:12:09.107Z,72.69
2023-01-30T09:14:44.908Z,72.23
2023-01-30T09:17:15.073Z,72.15
2023-01-30T09:19:45.095Z,72.25
2023-01-30T09:22:15.074Z,72.13
2023-01-30T09:24:44.984Z,71.93
2023-01-30T09:27:14.999Z,72.10
2023-01-30T09:29:47.565Z,72.33
2023-01-30T09:32:17.544Z,72.61
2023-01-30T09:34:48.751Z,73.25
2023-01-30T09:37:18.623Z,73.60
2023-01-30T09:39:48.504Z,73.47
2023-01-30T09:42:53.432Z,73.36
2023-01-30T09:45:46.879Z,73.58
2023-01-30T09:48:23.322Z,73.32
2023-01-30T09:51:29.933Z,72.79
2023-01-30T09:54:24.553Z,73.87
2023-01-30T09:57:02.516Z,74.13
2023-01-30T09:59:43.953Z,74.99
2023-01-30T10:02:34.398Z,74.40
2023-01-30T10:05:04.789Z,74.46
2023-01-30T10:07:49.670Z,74.83
2023-01-30T10:10:30.513Z,75.62
2023-01-30T10:13:13.032Z,75.82
2023-01-30T10:15:55.267Z,75.27
2023-01-30T10:18:58.221Z,75.57
2023-01-30T10:21:43.414Z,75.94
2023-01-30T10:24:41.201Z,76.00
2023-01-30T10:27:17.630Z,76.30
2023-01-30T10:29:52.140Z,76.77
2023-01-30T10:32:29.120Z,76.32
2023-01-30T10:35:10.650Z,76.37
2023-01-30T10:37:49.086Z,76.71
2023-01-30T10:40:28.071Z,76.87
2023-01-30T10:43:09.024Z,77.34
2023-01-30T10:45:51.289Z,77.62
2023-01-30T10:48:46.556Z,77.73
2023-01-30T10:51:48.532Z,77.69
2023-01-30T10:54:27.048Z,78.17
2023-01-30T10:57:11.430Z,78.05
2023-01-30T10:59:56.286Z,78.17
2023-01-30T11:02:29.181Z,77.98
2023-01-30T11:05:02.112Z,78.07
2023-01-30T11:07:36.723Z,78.14
2023-01-30T11:10:20.481Z,78.21
2023-01-30T11:12:58.701Z,78.01
2023-01-30T11:15:44.351Z,78.47
2023-01-30T11:21:10.877Z,79.30
2023-01-30T11:23:46.783Z,79.85
2023-01-30T11:26:26.089Z,80.53
2023-01-30T11:28:59.497Z,80.78
2023-01-30T11:31:41.365Z,81.29
2023-01-30T11:34:18.699Z,81.37
2023-01-30T11:36:49.717Z,81.12
2023-01-30T11:39:31.463Z,81.26
2023-01-30T11:42:05.831Z,81.67
2023-01-30T11:44:38.272Z,81.42
2023-01-30T11:47:12.767Z,81.08
2023-01-30T11:50:10.331Z,81.64
2023-01-30T11:52:46.719Z,81.69
2023-01-30T11:55:23.233Z,82.43
2023-01-30T11:57:58.660Z,81.52
2023-01-30T12:00:41.067Z,82.30
2023-01-30T12:03:16.488Z,82.51
2023-01-30T12:05:49.307Z,82.24
2023-01-30T12:08:42.576Z,81.92
2023-01-30T12:11:45.203Z,82.38
2023-01-30T12:14:29.662Z,81.81
2023-01-30T12:17:11.819Z,81.91
2023-01-30T12:20:06.223Z,81.77
2023-01-30T12:22:47.718Z,81.64
2023-01-30T12:25:25.052Z,81.67
2023-01-30T12:28:04.646Z,82.18
2023-01-30T12:30:41.711Z,81.85
2023-01-30T12:36:07.421Z,81.95
2023-01-30T12:38:58.692Z,81.57
2023-01-30T12:41:48.020Z,81.97
2023-01-30T12:44:51.789Z,81.28
2023-01-30T12:47:42.939Z,81.13
2023-01-30T12:50:28.374Z,81.15
2023-01-30T12:53:18.759Z,81.34
2023-01-30T12:56:00.756Z,81.31
2023-01-30T12:58:43.735Z,81.35
2023-01-30T13:01:29.810Z,81.17
2023-01-30T13:04:12.357Z,81.43
2023-01-30T13:07:09.761Z,80.94
2023-01-30T13:10:01.049Z,81.02
2023-01-30T13:12:41.328Z,80.76
2023-01-30T13:15:28.207Z,80.79
2023-01-30T13:18:14.747Z,80.43
2023-01-30T13:21:00.436Z,80.01
2023-01-30T13:23:44.309Z,80.47
2023-01-30T13:26:19.306Z,80.88
2023-01-30T13:28:53.945Z,80.37
2023-01-30T13:31:30.970Z,80.82
2023-01-30T13:34:09.510Z,81.45
2023-01-30T13:36:46.672Z,80.61
2023-01-30T13:39:23.693Z,81.13
2023-01-30T13:41:59.494Z,81.33
2023-01-30T13:44:34.357Z,81.71
2023-01-30T13:47:21.153Z,81.34
2023-01-30T13:50:13.020Z,81.61
2023-01-30T13:52:49.604Z,81.48
2023-01-30T13:55:36.338Z,81.41
2023-01-30T13:58:25.565Z,81.33
2023-01-30T14:00:57.826Z,81.65
2023-01-30T14:03:33.485Z,81.70
2023-01-30T14:06:40.437Z,82.04
2023-01-30T14:09:33.315Z,82.39
2023-01-30T14:12:06.870Z,82.22
2023-01-30T14:14:40.764Z,82.16
2023-01-30T14:17:15.033Z,82.12
2023-01-30T14:20:01.516Z,82.58
2023-01-30T14:22:39.717Z,82.21
2023-01-30T14:25:48.113Z,82.35
2023-01-30T14:28:51.143Z,82.38
2023-01-30T14:31:54.345Z,82.49
2023-01-30T14:34:52.394Z,82.24
2023-01-30T14:38:07.353Z,82.30
2023-01-30T14:40:42.896Z,82.21
2023-01-30T14:43:42.674Z,81.78
2023-01-30T14:46:58.290Z,81.44
2023-01-30T14:49:32.707Z,81.45
2023-01-30T14:52:05.723Z,81.14
2023-01-30T14:54:52.503Z,81.11
2023-01-30T14:57:32.577Z,81.64
2023-01-30T15:00:18.705Z,80.85
2023-01-30T15:02:56.797Z,80.52
2023-01-30T15:05:34.970Z,79.74
2023-01-30T15:08:15.259Z,80.15
2023-01-30T15:11:07.302Z,80.26
2023-01-30T15:13:56.679Z,80.39
2023-01-30T15:16:47.495Z,79.83
2023-01-30T15:19:51.986Z,80.05
2023-01-30T15:22:39.426Z,80.51
2023-01-30T15:25:43.528Z,79.93
2023-01-30T15:28:30.881Z,79.31
2023-01-30T15:31:12.927Z,78.59
2023-01-30T15:33:51.466Z,78.75
2023-01-30T15:36:26.078Z,79.40
2023-01-30T15:39:04.939Z,79.32
2023-01-30T15:41:42.990Z,79.69
2023-01-30T15:44:45.606Z,79.79
2023-01-30T15:47:40.067Z,79.80
2023-01-30T15:50:13.175Z,80.23
2023-01-30T15:52:48.327Z,79.85
2023-01-30T15:55:32.534Z,79.43
2023-01-30T15:58:36.840Z,79.71
2023-01-30T16:01:37.788Z,80.05
2023-01-30T16:05:00.555Z,79.47
2023-01-30T16:07:49.259Z,80.36
2023-01-30T16:10:27.935Z,80.15
2023-01-30T16:13:05.332Z,80.46
2023-01-30T16:15:48.223Z,80.61
2023-01-30T16:18:32.587Z,80.61
2023-01-30T16:21:09.545Z,80.88
2023-01-30T16:23:47.872Z,81.08
2023-01-30T16:26:34.929Z,81.13
2023-01-30T16:32:58.896Z,81.14
2023-01-30T16:35:37.764Z,81.21
2023-01-30T16:38:31.789Z,80.90
2023-01-30T16:41:01.828Z,80.84
2023-01-30T16:43:35.100Z,81.11
2023-01-30T16:46:37.817Z,80.62
2023-01-30T16:49:08.800Z,81.00
2023-01-30T16:51:41.499Z,80.68
2023-01-30T16:54:21.905Z,80.27
2023-01-30T16:56:56.924Z,80.39
2023-01-30T16:59:33.973Z,80.79
2023-01-30T17:02:08.180Z,81.00
2023-01-30T17:04:41.458Z,80.82
2023-01-30T17:07:36.786Z,80.54
2023-01-30T17:10:07.363Z,80.96
2023-01-30T17:12:45.903Z,80.80
2023-01-30T17:15:32.103Z,81.03
2023-01-30T17:18:02.095Z,80.84
2023-01-30T17:20:51.214Z,80.91
2023-01-30T17:23:24.659Z,81.04
2023-01-30T17:25:54.672Z,80.88
2023-01-30T17:28:24.572Z,81.02
2023-01-30T17:30:54.605Z,80.86
2023-01-30T17:33:25.921Z,81.07
2023-01-30T17:35:55.902Z,80.96
2023-01-30T17:38:28.349Z,81.01
2023-01-30T17:40:58.274Z,81.25
2023-01-30T17:43:28.168Z,80.95
2023-01-30T17:45:58.673Z,81.10
2023-01-30T17:48:28.645Z,81.06
2023-01-30T17:50:58.640Z,80.90
2023-01-30T17:53:31.227Z,81.08
2023-01-30T17:56:01.164Z,80.95
2023-01-30T17:58:31.122Z,81.04
2023-01-30T18:01:01.000Z,80.76
2023-01-30T18:03:30.905Z,80.85
2023-01-30T18:06:01.022Z,80.69
2023-01-30T18:08:33.550Z,80.70
2023-01-30T18:11:03.450Z,80.23
2023-01-30T18:13:35.000Z,80.20
2023-01-30T18:16:06.114Z,80.26
2023-01-30T18:18:36.455Z,80.07
2023-01-30T18:21:06.495Z,80.40
2023-01-30T18:23:39.523Z,80.21
2023-01-30T18:26:09.447Z,80.07
2023-01-30T18:28:40.195Z,80.27
2023-01-30T18:31:10.290Z,80.08
2023-01-30T18:33:40.927Z,80.52
2023-01-30T18:36:12.839Z,80.79
2023-01-30T18:38:45.844Z,80.58
2023-01-30T18:41:19.172Z,80.84
2023-01-30T18:43:50.870Z,81.05
2023-01-30T18:46:21.081Z,81.13
2023-01-30T18:48:51.228Z,80.29
2023-01-30T18:51:24.704Z,80.15
2023-01-30T18:53:58.565Z,80.60
2023-01-30T18:56:31.383Z,80.47
2023-01-30T18:59:04.178Z,80.74
2023-01-30T19:01:38.704Z,80.66
2023-01-30T19:04:10.571Z,80.81
2023-01-30T19:06:42.487Z,80.58
2023-01-30T19:09:19.133Z,80.63
2023-01-30T19:12:01.581Z,80.81
2023-01-30T19:14:31.490Z,80.47
2023-01-30T19:17:01.482Z,80.76
2023-01-30T19:19:32.367Z,80.09
2023-01-30T19:22:02.290Z,80.55
2023-01-30T19:24:34.775Z,80.81
2023-01-30T19:27:07.597Z,80.38
2023-01-30T19:29:37.465Z,81.00
2023-01-30T19:32:08.190Z,80.75
2023-01-30T19:34:38.591Z,80.97
2023-01-30T19:37:08.709Z,80.59
2023-01-30T19:39:41.226Z,80.54
2023-01-30T19:42:11.100Z,80.90
2023-01-30T19:44:41.152Z,80.92
2023-01-30T19:47:13.946Z,80.23
2023-01-30T19:49:43.841Z,80.26
2023-01-30T19:52:13.658Z,80.46
2023-01-30T19:54:47.067Z,80.74
2023-01-30T19:57:16.981Z,80.71
2023-01-30T19:59:47.006Z,79.92
2023-01-30T20:02:16.909Z,80.42
2023-01-30T20:04:46.805Z,80.35
2023-01-30T20:07:16.783Z,79.86
2023-01-30T20:09:49.379Z,79.64
2023-01-30T20:12:19.276Z,79.82
2023-01-30T20:14:49.180Z,79.52
2023-01-30T20:17:36.591Z,79.63
2023-01-30T20:20:22.601Z,79.70
2023-01-30T20:23:28.578Z,79.64
2023-01-30T20:26:26.033Z,79.69
2023-01-30T20:29:20.042Z,79.11
2023-01-30T20:35:09.113Z,79.58
2023-01-30T20:42:28.624Z,79.52
2023-01-30T20:46:32.520Z,79.57
2023-01-30T20:49:32.017Z,79.44
2023-01-30T20:52:01.994Z,79.81
2023-01-30T20:54:31.990Z,79.61
2023-01-30T21:08:37.085Z,79.32
2023-01-30T21:28:48.330Z,79.58
2023-01-30T21:31:21.299Z,79.23
2023-01-30T21:33:51.385Z,79.18
2023-01-30T21:36:21.790Z,78.83
2023-01-30T21:39:04.250Z,78.79
2023-01-30T21:41:59.300Z,79.31
2023-01-30T21:44:34.148Z,78.70
2023-01-30T21:47:04.016Z,78.36
2023-01-30T21:49:34.067Z,79.14
2023-01-30T21:52:07.266Z,79.00
2023-01-30T21:54:37.745Z,79.04
2023-01-30T21:57:07.682Z,78.94
2023-01-30T21:59:46.740Z,79.34
2023-01-30T22:02:19.177Z,79.29
2023-01-30T22:04:50.554Z,78.94
2023-01-30T22:43:02.431Z,78.21
